createdAt,value
2017-01-05T00:00:35.466Z,54.91
2017-01-05T00:01:44.434Z,55.3
2017-01-05T00:02:53.423Z,55.4
2017-01-05T00:04:02.399Z,55.4
2017-01-05T00:05:11.366Z,55.46
2017-01-05T00:06:20.354Z,55.11
2017-01-05T00:07:29.330Z,55.08
2017-01-05T00:08:38.305Z,54.89
2017-01-05T00:09:47.289Z,55.18
2017-01-05T00:10:56.261Z,54.89
2017-01-05T00:12:05.282Z,54.99
2017-01-05T00:13:14.256Z,55.08
2017-01-05T00:14:23.258Z,54.99
2017-01-05T00:15:32.232Z,55.08
2017-01-05T00:16:41.215Z,55.08
2017-01-05T00:17:50.195Z,54.99
2017-01-05T00:18:59.173Z,55.08
2017-01-05T00:20:08.147Z,55.27
2017-01-05T00:21:17.129Z,55.36
2017-01-05T00:22:26.102Z,55.36
2017-01-05T00:23:35.083Z,55.36
2017-01-05T00:24:44.065Z,55.24
2017-01-05T00:25:53.082Z,55.08
2017-01-05T00:27:02.054Z,55.36
2017-01-05T00:28:11.036Z,55.08
2017-01-05T00:29:20.006Z,55.05
2017-01-05T00:30:28.995Z,55.34
2017-01-05T00:31:37.974Z,55.05
2017-01-05T00:32:46.941Z,55.63
2017-01-05T00:33:55.962Z,55.34
2017-01-05T00:35:04.932Z,55.24
2017-01-05T00:36:13.913Z,55.63
2017-01-05T00:37:22.889Z,55.44
2017-01-05T00:38:31.898Z,55.63
2017-01-05T00:39:40.895Z,55.53
2017-01-05T00:40:49.876Z,55.34
2017-01-05T00:41:58.872Z,55.53
2017-01-05T00:43:07.849Z,55.73
2017-01-05T00:44:17.138Z,56.01
2017-01-05T00:45:26.254Z,55.73
2017-01-05T00:46:35.219Z,55.91
2017-01-05T00:47:44.196Z,55.91
2017-01-05T00:48:53.177Z,55.73
2017-01-05T00:50:02.151Z,56.01
2017-01-05T00:51:11.129Z,56.01
2017-01-05T00:52:20.108Z,56.1
2017-01-05T00:53:29.079Z,55.91
2017-01-05T00:54:38.064Z,56.01
2017-01-05T00:55:47.036Z,55.82
2017-01-05T00:56:56.017Z,55.91
2017-01-05T00:58:04.986Z,55.73
2017-01-05T00:59:13.968Z,55.53
2017-01-05T01:00:22.929Z,56.49
2017-01-05T01:01:31.966Z,56.39
2017-01-05T01:02:40.976Z,56.56
2017-01-05T01:03:49.950Z,56.65
2017-01-05T01:04:58.933Z,56.27
2017-01-05T01:06:07.910Z,56.08
2017-01-05T01:07:16.889Z,56.08
2017-01-05T01:08:25.853Z,56.17
2017-01-05T01:09:34.831Z,56.46
2017-01-05T01:10:43.802Z,56.75
2017-01-05T01:11:52.790Z,56.56
2017-01-05T01:13:01.774Z,56.56
2017-01-05T01:14:10.762Z,56.56
2017-01-05T01:15:19.871Z,56.46
2017-01-05T01:16:28.845Z,56.08
2017-01-05T01:17:37.851Z,55.6
2017-01-05T01:18:46.840Z,55.79
2017-01-05T01:19:55.811Z,55.88
2017-01-05T01:21:04.776Z,56.17
2017-01-05T01:22:13.750Z,55.88
2017-01-05T01:23:22.736Z,56.17
2017-01-05T01:24:31.716Z,55.79
2017-01-05T01:25:40.690Z,55.69
2017-01-05T01:26:49.663Z,56.17
2017-01-05T01:27:58.640Z,56.37
2017-01-05T01:29:07.613Z,56.37
2017-01-05T01:30:16.591Z,56.34
2017-01-05T01:31:25.573Z,57.01
2017-01-05T01:32:34.546Z,56.62
2017-01-05T01:33:43.530Z,55.96
2017-01-05T01:34:52.499Z,56.08
2017-01-05T01:36:01.479Z,56.84
2017-01-05T01:37:10.450Z,56.72
2017-01-05T01:38:19.412Z,55.69
2017-01-05T01:39:28.387Z,55.69
2017-01-05T01:40:37.365Z,55.79
2017-01-05T01:41:46.334Z,55.69
2017-01-05T01:42:55.299Z,55.76
2017-01-05T01:44:04.271Z,55.67
2017-01-05T01:45:13.238Z,55.76
2017-01-05T01:46:22.205Z,55.38
2017-01-05T01:47:31.184Z,55.38
2017-01-05T01:48:40.161Z,56.15
2017-01-05T01:49:49.148Z,55.67
2017-01-05T01:50:58.107Z,55.47
2017-01-05T01:52:07.072Z,55.76
2017-01-05T01:53:16.067Z,55.96
2017-01-05T01:54:25.040Z,55.86
2017-01-05T01:55:34.020Z,55.76
2017-01-05T01:56:43.000Z,55.86
2017-01-05T01:57:51.974Z,55.38
2017-01-05T01:59:00.943Z,55.19
2017-01-05T02:00:09.926Z,56.15
2017-01-05T02:01:18.909Z,55.57
2017-01-05T02:02:27.880Z,55.47
2017-01-05T02:03:36.849Z,55.47
2017-01-05T02:04:45.816Z,55.19
2017-01-05T02:05:54.789Z,55.19
2017-01-05T02:07:03.764Z,55.29
2017-01-05T02:08:12.740Z,55.29
2017-01-05T02:09:21.718Z,55
2017-01-05T02:10:30.690Z,55.1
2017-01-05T02:11:39.665Z,55.1
2017-01-05T02:12:48.637Z,55.19
2017-01-05T02:13:57.617Z,55.38
2017-01-05T02:15:06.585Z,55.38
2017-01-05T02:16:15.559Z,55.67
2017-01-05T02:17:24.528Z,55.74
2017-01-05T02:18:33.506Z,55.57
2017-01-05T02:19:42.480Z,55.74
2017-01-05T02:20:51.455Z,55.54
2017-01-05T02:22:00.445Z,55.83
2017-01-05T02:23:09.412Z,55.64
2017-01-05T02:24:18.395Z,56.02
2017-01-05T02:25:27.368Z,55.54
2017-01-05T02:26:36.347Z,55.74
2017-01-05T02:27:45.320Z,55.54
2017-01-05T02:28:54.310Z,55.83
2017-01-05T02:30:03.292Z,56.02
2017-01-05T02:31:12.268Z,55.54
2017-01-05T02:32:21.236Z,55.54
2017-01-05T02:33:30.246Z,55.54
2017-01-05T02:34:39.241Z,55.45
2017-01-05T02:35:48.214Z,55.83
2017-01-05T02:36:57.178Z,55.54
2017-01-05T02:38:06.173Z,55.45
2017-01-05T02:39:15.156Z,55.74
2017-01-05T02:40:24.154Z,55.74
2017-01-05T02:41:33.126Z,55.74
2017-01-05T02:42:42.115Z,55.74
2017-01-05T02:43:51.104Z,55.93
2017-01-05T02:45:00.084Z,56.69
2017-01-05T02:46:09.058Z,56.12
2017-01-05T02:47:18.038Z,55.64
2017-01-05T02:48:27.001Z,55.74
2017-01-05T02:49:35.987Z,56.12
2017-01-05T02:50:44.969Z,55.83
2017-01-05T02:51:53.951Z,55.64
2017-01-05T02:53:02.922Z,55.74
2017-01-05T02:54:11.883Z,55.93
2017-01-05T02:55:20.861Z,55.93
2017-01-05T02:56:29.840Z,56.12
2017-01-05T02:57:38.817Z,55.74
2017-01-05T02:58:47.784Z,55.83
2017-01-05T02:59:56.758Z,55.54
2017-01-05T03:01:05.732Z,55.74
2017-01-05T03:02:14.706Z,56.12
2017-01-05T03:03:23.687Z,55.74
2017-01-05T03:04:32.659Z,55.93
2017-01-05T03:05:41.638Z,55.45
2017-01-05T03:06:50.622Z,55.93
2017-01-05T03:07:59.596Z,55.99
2017-01-05T03:09:08.573Z,56.47
2017-01-05T03:10:17.558Z,56.85
2017-01-05T03:11:26.533Z,56.67
2017-01-05T03:12:35.500Z,55.99
2017-01-05T03:13:44.518Z,56.85
2017-01-05T03:14:53.497Z,56.57
2017-01-05T03:16:02.468Z,56.47
2017-01-05T03:17:11.443Z,56.47
2017-01-05T03:18:20.414Z,56.38
2017-01-05T03:19:29.393Z,56.76
2017-01-05T03:20:38.372Z,55.9
2017-01-05T03:21:47.352Z,55.8
2017-01-05T03:22:56.306Z,56.09
2017-01-05T03:24:05.281Z,55.52
2017-01-05T03:25:14.252Z,55.52
2017-01-05T03:26:23.226Z,55.61
2017-01-05T03:27:32.228Z,55.71
2017-01-05T03:28:41.197Z,55.71
2017-01-05T03:29:50.178Z,55.8
2017-01-05T03:30:59.153Z,55.61
2017-01-05T03:32:08.134Z,55.42
2017-01-05T03:33:17.100Z,55.99
2017-01-05T03:34:26.085Z,56.09
2017-01-05T03:35:35.081Z,55.71
2017-01-05T03:36:44.042Z,55.61
2017-01-05T03:37:53.016Z,55.71
2017-01-05T03:39:01.991Z,56.09
2017-01-05T03:40:10.981Z,55.52
2017-01-05T03:41:19.937Z,56.28
2017-01-05T03:42:28.905Z,55.42
2017-01-05T03:43:37.872Z,55.9
2017-01-05T03:44:46.850Z,56.18
2017-01-05T03:45:55.821Z,56.57
2017-01-05T03:47:04.803Z,55.9
2017-01-05T03:48:13.773Z,56.38
2017-01-05T03:49:22.738Z,56.28
2017-01-05T03:50:31.726Z,56.38
2017-01-05T03:51:40.706Z,56.45
2017-01-05T03:52:49.673Z,56.45
2017-01-05T03:53:58.640Z,56.35
2017-01-05T03:55:07.608Z,56.09
2017-01-05T03:56:16.591Z,55.9
2017-01-05T03:57:25.573Z,56.38
2017-01-05T03:58:34.560Z,55.58
2017-01-05T03:59:43.539Z,55.87
2017-01-05T04:00:52.506Z,55.96
2017-01-05T04:02:01.477Z,56.45
2017-01-05T04:03:10.449Z,56.63
2017-01-05T04:04:19.427Z,56.35
2017-01-05T04:05:28.428Z,56.16
2017-01-05T04:06:37.408Z,56.06
2017-01-05T04:07:46.377Z,56.35
2017-01-05T04:08:55.359Z,56.82
2017-01-05T04:10:04.349Z,56.73
2017-01-05T04:11:13.327Z,56.73
2017-01-05T04:12:22.324Z,56.73
2017-01-05T04:13:31.301Z,56.45
2017-01-05T04:14:40.293Z,56.54
2017-01-05T04:15:49.257Z,56.06
2017-01-05T04:16:58.231Z,56.54
2017-01-05T04:18:07.203Z,56.73
2017-01-05T04:19:16.217Z,57.02
2017-01-05T04:20:25.194Z,57.02
2017-01-05T04:21:34.167Z,56.92
2017-01-05T04:22:43.135Z,56.25
2017-01-05T04:23:52.096Z,56.54
2017-01-05T04:25:01.081Z,56.7
2017-01-05T04:26:10.059Z,56.54
2017-01-05T04:27:19.038Z,56.35
2017-01-05T04:28:28.011Z,56.73
2017-01-05T04:29:36.993Z,56.45
2017-01-05T04:30:45.964Z,56.35
2017-01-05T04:31:54.938Z,56.41
2017-01-05T04:33:03.918Z,56.82
2017-01-05T04:34:12.889Z,56.73
2017-01-05T04:35:21.862Z,56.51
2017-01-05T04:36:30.832Z,56.82
2017-01-05T04:37:39.811Z,56.89
2017-01-05T04:38:48.774Z,56.89
2017-01-05T04:39:57.756Z,57.02
2017-01-05T04:41:06.720Z,56.54
2017-01-05T04:42:15.683Z,56.63
2017-01-05T04:43:24.659Z,56.63
2017-01-05T04:44:33.637Z,56.7
2017-01-05T04:45:42.605Z,56.41
2017-01-05T04:46:51.585Z,56.7
2017-01-05T04:48:00.562Z,56.51
2017-01-05T04:49:09.521Z,56.8
2017-01-05T04:50:18.502Z,56.89
2017-01-05T04:51:27.469Z,56.7
2017-01-05T04:52:36.447Z,56.89
2017-01-05T04:53:45.431Z,57.18
2017-01-05T04:54:54.428Z,56.6
2017-01-05T04:56:03.395Z,56.51
2017-01-05T04:57:12.373Z,56.8
2017-01-05T04:58:21.349Z,56.63
2017-01-05T04:59:30.330Z,56.6
2017-01-05T05:00:39.303Z,56.7
2017-01-05T05:01:48.296Z,56.41
2017-01-05T05:02:57.258Z,56.89
2017-01-05T05:04:06.242Z,56.6
2017-01-05T05:05:15.216Z,56.41
2017-01-05T05:06:24.188Z,56.8
2017-01-05T05:07:33.158Z,56.51
2017-01-05T05:08:42.126Z,56.7
2017-01-05T05:09:51.109Z,56.8
2017-01-05T05:11:00.082Z,56.7
2017-01-05T05:12:09.066Z,56.89
2017-01-05T05:13:18.042Z,56.7
2017-01-05T05:14:27.017Z,56.6
2017-01-05T05:15:35.986Z,56.51
2017-01-05T05:16:44.961Z,56.23
2017-01-05T05:17:53.951Z,56.8
2017-01-05T05:19:02.936Z,56.8
2017-01-05T05:20:11.916Z,56.51
2017-01-05T05:21:20.888Z,56.04
2017-01-05T05:22:29.874Z,56.41
2017-01-05T05:23:38.832Z,56.51
2017-01-05T05:24:47.818Z,56.32
2017-01-05T05:25:56.786Z,56.8
2017-01-05T05:27:05.765Z,56.8
2017-01-05T05:28:14.734Z,56.51
2017-01-05T05:29:23.706Z,56.32
2017-01-05T05:30:32.671Z,56.32
2017-01-05T05:31:41.632Z,56.13
2017-01-05T05:32:50.601Z,56.41
2017-01-05T05:33:59.575Z,56.23
2017-01-05T05:35:08.541Z,56.13
2017-01-05T05:36:17.525Z,55.84
2017-01-05T05:37:26.492Z,56.13
2017-01-05T05:38:35.451Z,56.04
2017-01-05T05:39:44.417Z,56.13
2017-01-05T05:40:53.407Z,55.55
2017-01-05T05:42:02.383Z,55.94
2017-01-05T05:43:11.817Z,56.32
2017-01-05T05:44:20.967Z,56.32
2017-01-05T05:45:29.956Z,56.23
2017-01-05T05:46:38.972Z,56.2
2017-01-05T05:47:47.943Z,56.13
2017-01-05T05:48:56.966Z,56.51
2017-01-05T05:50:05.940Z,56.29
2017-01-05T05:51:14.920Z,56.32
2017-01-05T05:52:23.888Z,55.84
2017-01-05T05:53:32.890Z,56.32
2017-01-05T05:54:41.864Z,56.13
2017-01-05T05:55:50.835Z,55.75
2017-01-05T05:56:59.811Z,57.65
2017-01-05T05:58:08.805Z,61.29
2017-01-05T05:59:17.817Z,67.43
2017-01-05T06:00:26.777Z,68.32
2017-01-05T06:01:35.757Z,69.09
2017-01-05T06:02:44.770Z,71.22
2017-01-05T06:03:54.002Z,70.17
2017-01-05T06:05:04.141Z,70.84
2017-01-05T06:06:13.116Z,71.89
2017-01-05T06:07:22.117Z,72.5
2017-01-05T06:08:31.092Z,72.5
2017-01-05T06:09:40.067Z,72.69
2017-01-05T06:10:49.047Z,72.02
2017-01-05T06:11:58.009Z,71.55
2017-01-05T06:13:06.992Z,71.07
2017-01-05T06:14:15.954Z,72.88
2017-01-05T06:15:24.973Z,73.08
2017-01-05T06:16:33.961Z,72.41
2017-01-05T06:17:42.920Z,70.72
2017-01-05T06:18:51.890Z,67.34
2017-01-05T06:20:00.916Z,66.57
2017-01-05T06:21:09.895Z,67.43
2017-01-05T06:22:18.869Z,68.1
2017-01-05T06:23:27.843Z,67.43
2017-01-05T06:24:36.830Z,66.28
2017-01-05T06:25:45.818Z,66
2017-01-05T06:26:54.804Z,68.29
2017-01-05T06:28:03.782Z,69.82
2017-01-05T06:29:12.770Z,71.16
2017-01-05T06:30:21.750Z,71.2
2017-01-05T06:31:30.718Z,71.77
2017-01-05T06:32:39.699Z,72.54
2017-01-05T06:33:48.681Z,72.54
2017-01-05T06:34:57.645Z,72.54
2017-01-05T06:36:06.623Z,72.83
2017-01-05T06:37:15.591Z,73.3
2017-01-05T06:38:24.567Z,73.44
2017-01-05T06:39:33.531Z,73.15
2017-01-05T06:40:42.509Z,72.96
2017-01-05T06:41:51.475Z,73.44
2017-01-05T06:43:00.457Z,73.44
2017-01-05T06:44:09.437Z,73.44
2017-01-05T06:45:18.409Z,73.72
2017-01-05T06:46:27.388Z,73.44
2017-01-05T06:47:36.382Z,74.49
2017-01-05T06:48:45.357Z,74.3
2017-01-05T06:49:54.352Z,74.58
2017-01-05T06:51:03.330Z,74.3
2017-01-05T06:52:12.322Z,74.77
2017-01-05T06:53:21.289Z,74.58
2017-01-05T06:54:30.519Z,74.77
2017-01-05T06:55:39.490Z,74.68
2017-01-05T06:56:48.466Z,74.58
2017-01-05T06:57:57.430Z,74.97
2017-01-05T06:59:06.399Z,74.58
2017-01-05T07:00:15.378Z,74.82
2017-01-05T07:01:24.360Z,74.33
2017-01-05T07:02:33.370Z,74.24
2017-01-05T07:03:42.345Z,74.91
2017-01-05T07:04:51.322Z,74.62
2017-01-05T07:06:00.296Z,75.68
2017-01-05T07:07:09.262Z,75.39
2017-01-05T07:08:18.269Z,74.62
2017-01-05T07:09:27.234Z,74.82
2017-01-05T07:10:36.208Z,75.2
2017-01-05T07:11:45.193Z,75.48
2017-01-05T07:12:54.174Z,74.52
2017-01-05T07:14:03.149Z,74.43
2017-01-05T07:15:12.124Z,74.05
2017-01-05T07:16:21.099Z,74.05
2017-01-05T07:17:30.066Z,74.33
2017-01-05T07:18:39.040Z,74.15
2017-01-05T07:19:48.024Z,74.05
2017-01-05T07:20:56.992Z,74.15
2017-01-05T07:22:05.975Z,74.05
2017-01-05T07:23:14.947Z,73.86
2017-01-05T07:24:23.931Z,73.86
2017-01-05T07:25:32.912Z,73.9
2017-01-05T07:26:41.918Z,74.66
2017-01-05T07:27:50.883Z,74.51
2017-01-05T07:28:59.864Z,73.74
2017-01-05T07:30:08.913Z,73
2017-01-05T07:31:18.235Z,72.53
2017-01-05T07:32:27.221Z,72.72
2017-01-05T07:33:36.231Z,71.98
2017-01-05T07:34:45.204Z,71.8
2017-01-05T07:35:54.178Z,71.8
2017-01-05T07:37:03.196Z,70.87
2017-01-05T07:38:12.184Z,71.31
2017-01-05T07:39:21.171Z,71.64
2017-01-05T07:40:30.150Z,71
2017-01-05T07:41:40.293Z,71
2017-01-05T07:42:49.269Z,70.81
2017-01-05T07:43:58.457Z,70.27
2017-01-05T07:45:07.434Z,69.89
2017-01-05T07:46:16.403Z,69.98
2017-01-05T07:47:25.409Z,69.5
2017-01-05T07:48:34.468Z,69.98
2017-01-05T07:49:43.486Z,69.53
2017-01-05T07:50:52.461Z,69.69
2017-01-05T07:52:01.445Z,70.94
2017-01-05T07:53:10.416Z,70.9
2017-01-05T07:54:19.381Z,71.39
2017-01-05T07:55:28.362Z,72.89
2017-01-05T07:56:37.330Z,71.83
2017-01-05T07:57:46.298Z,71.83
2017-01-05T07:58:55.280Z,73.37
2017-01-05T08:00:04.252Z,73.94
2017-01-05T08:01:13.238Z,73.27
2017-01-05T08:02:22.213Z,72.31
2017-01-05T08:03:31.226Z,71.93
2017-01-05T08:04:40.195Z,72.5
2017-01-05T08:05:49.182Z,72.41
2017-01-05T08:06:58.169Z,71.55
2017-01-05T08:08:07.152Z,71.25
2017-01-05T08:09:16.135Z,71.06
2017-01-05T08:10:25.125Z,71.55
2017-01-05T08:11:34.102Z,71.45
2017-01-05T08:12:43.117Z,71.83
2017-01-05T08:13:53.119Z,71.93
2017-01-05T08:15:02.102Z,71.64
2017-01-05T08:16:11.111Z,71.64
2017-01-05T08:17:20.093Z,71.45
2017-01-05T08:18:29.088Z,71.55
2017-01-05T08:19:38.082Z,70.68
2017-01-05T08:20:47.095Z,71.83
2017-01-05T08:21:56.071Z,71.55
2017-01-05T08:23:05.081Z,71.25
2017-01-05T08:24:14.064Z,71.25
2017-01-05T08:25:23.044Z,71.45
2017-01-05T08:26:32.037Z,71.55
2017-01-05T08:27:41.028Z,71.16
2017-01-05T08:28:50.004Z,58.96
2017-01-05T08:29:58.975Z,55.55
2017-01-05T08:31:07.956Z,53.41
2017-01-05T08:32:16.925Z,51.44
2017-01-05T08:33:25.940Z,52.28
2017-01-05T08:34:34.936Z,54.1
2017-01-05T08:35:43.909Z,57.16
2017-01-05T08:36:52.892Z,58.62
2017-01-05T08:38:01.871Z,60.57
2017-01-05T08:39:10.842Z,63.29
2017-01-05T08:40:19.816Z,64.43
2017-01-05T08:41:28.803Z,64.82
2017-01-05T08:42:37.779Z,65.33
2017-01-05T08:43:46.743Z,65.72
2017-01-05T08:44:55.733Z,66.19
2017-01-05T08:46:04.719Z,65.62
2017-01-05T08:47:13.714Z,65.81
2017-01-05T08:48:22.729Z,65.91
2017-01-05T08:49:31.699Z,66
2017-01-05T08:50:40.676Z,66
2017-01-05T08:51:49.655Z,66.96
2017-01-05T08:52:58.636Z,66.86
2017-01-05T08:54:07.618Z,66.77
2017-01-05T08:55:16.585Z,67.16
2017-01-05T08:56:25.563Z,67.25
2017-01-05T08:57:34.548Z,67.44
2017-01-05T08:58:43.545Z,68.05
2017-01-05T08:59:52.515Z,67.92
2017-01-05T09:01:01.483Z,68.53
2017-01-05T09:02:10.471Z,68.53
2017-01-05T09:03:19.450Z,68.53
2017-01-05T09:04:28.432Z,68.34
2017-01-05T09:05:37.407Z,68.82
2017-01-05T09:06:46.395Z,68.73
2017-01-05T09:07:55.365Z,69.11
2017-01-05T09:09:04.348Z,69.2
2017-01-05T09:10:13.316Z,69.59
2017-01-05T09:11:22.726Z,69.4
2017-01-05T09:12:31.705Z,69.4
2017-01-05T09:13:40.683Z,69.3
2017-01-05T09:14:49.665Z,69.87
2017-01-05T09:15:58.644Z,69.68
2017-01-05T09:17:07.626Z,69.97
2017-01-05T09:18:16.596Z,70.36
2017-01-05T09:19:25.575Z,69.78
2017-01-05T09:20:34.575Z,69.87
2017-01-05T09:21:43.557Z,70.26
2017-01-05T09:22:52.524Z,70.36
2017-01-05T09:24:01.513Z,70.45
2017-01-05T09:25:10.483Z,70.45
2017-01-05T09:26:19.471Z,70.45
2017-01-05T09:27:28.457Z,70.39
2017-01-05T09:28:37.442Z,70.26
2017-01-05T09:29:46.424Z,70.55
2017-01-05T09:30:55.404Z,70.93
2017-01-05T09:32:04.382Z,70.84
2017-01-05T09:33:13.402Z,70.29
2017-01-05T09:34:22.377Z,70.74
2017-01-05T09:35:31.360Z,70.45
2017-01-05T09:36:40.329Z,70.49
2017-01-05T09:37:49.309Z,71.22
2017-01-05T09:38:58.290Z,70.78
2017-01-05T09:40:07.277Z,71.35
2017-01-05T09:41:16.239Z,71.16
2017-01-05T09:42:25.228Z,70.87
2017-01-05T09:43:34.200Z,70.87
2017-01-05T09:48:54.225Z,71.31
2017-01-05T09:50:03.243Z,71.31
2017-01-05T09:51:12.208Z,71.7
2017-01-05T09:52:21.193Z,71.64
2017-01-05T09:53:30.166Z,71.73
2017-01-05T09:54:39.158Z,71.45
2017-01-05T09:55:48.126Z,71.73
2017-01-05T09:56:57.105Z,71.64
2017-01-05T09:58:06.081Z,71.45
2017-01-05T09:59:15.075Z,71.55
2017-01-05T10:00:24.048Z,71.73
2017-01-05T10:01:33.018Z,71.64
2017-01-05T10:02:42.002Z,71.45
2017-01-05T10:03:50.973Z,71.64
2017-01-05T10:04:59.967Z,71.55
2017-01-05T10:06:08.947Z,71.73
2017-01-05T10:07:17.938Z,71.64
2017-01-05T10:08:26.906Z,72.02
2017-01-05T10:09:35.882Z,71.93
2017-01-05T10:10:44.870Z,72.02
2017-01-05T10:11:53.838Z,71.73
2017-01-05T10:13:02.816Z,72.02
2017-01-05T10:14:11.793Z,71.83
2017-01-05T10:15:20.771Z,71.83
2017-01-05T10:16:29.761Z,72.16
2017-01-05T10:17:38.747Z,71.83
2017-01-05T10:18:47.723Z,71.64
2017-01-05T10:19:56.687Z,72.25
2017-01-05T10:21:05.683Z,71.83
2017-01-05T10:22:14.669Z,72.22
2017-01-05T10:23:23.655Z,71.83
2017-01-05T10:24:32.639Z,71.83
2017-01-05T10:25:41.617Z,72.22
2017-01-05T10:26:50.592Z,71.77
2017-01-05T10:27:59.577Z,72.5
2017-01-05T10:29:08.582Z,72.34
2017-01-05T10:30:17.558Z,71.83
2017-01-05T10:31:26.571Z,72.06
2017-01-05T10:32:35.542Z,72.16
2017-01-05T10:33:44.523Z,72.25
2017-01-05T10:34:53.507Z,72.34
2017-01-05T10:36:02.478Z,72.25
2017-01-05T10:37:11.461Z,72.34
2017-01-05T10:38:20.427Z,71.67
2017-01-05T10:39:29.435Z,72.16
2017-01-05T10:40:38.395Z,72.06
2017-01-05T10:41:47.384Z,71.96
2017-01-05T10:42:56.382Z,72.06
2017-01-05T10:44:05.369Z,71.67
2017-01-05T10:45:14.339Z,72.06
2017-01-05T10:46:23.307Z,71.67
2017-01-05T10:47:32.275Z,71.96
2017-01-05T10:48:41.254Z,72.34
2017-01-05T10:49:50.241Z,71.87
2017-01-05T10:50:59.207Z,72.06
2017-01-05T10:52:08.197Z,71.87
2017-01-05T10:53:17.171Z,71.87
2017-01-05T10:54:26.146Z,72.06
2017-01-05T10:55:35.124Z,72.06
2017-01-05T10:56:44.102Z,71.87
2017-01-05T10:57:53.079Z,71.96
2017-01-05T10:59:02.069Z,72.06
2017-01-05T11:00:11.042Z,72.25
2017-01-05T11:01:20.006Z,71.96
2017-01-05T11:02:28.988Z,72.16
2017-01-05T11:03:37.961Z,72.25
2017-01-05T11:04:46.941Z,72.06
2017-01-05T11:05:55.924Z,71.96
2017-01-05T11:07:04.900Z,72.06
2017-01-05T11:08:13.883Z,71.96
2017-01-05T11:09:22.882Z,71.96
2017-01-05T11:10:31.869Z,71.96
2017-01-05T11:11:40.847Z,71.96
2017-01-05T11:12:49.820Z,72.06
2017-01-05T11:13:58.795Z,72.25
2017-01-05T11:15:07.768Z,71.87
2017-01-05T11:16:16.745Z,71.96
2017-01-05T11:17:25.716Z,72.06
2017-01-05T11:18:34.699Z,71.87
2017-01-05T11:19:43.672Z,71.87
2017-01-05T11:20:52.654Z,71.87
2017-01-05T11:22:01.656Z,71.96
2017-01-05T11:23:11.045Z,72.34
2017-01-05T11:24:20.045Z,72.34
2017-01-05T11:25:29.022Z,72.16
2017-01-05T11:26:37.992Z,71.87
2017-01-05T11:27:46.976Z,72.44
2017-01-05T11:28:55.944Z,71.87
2017-01-05T11:30:04.924Z,72.34
2017-01-05T11:31:13.903Z,72.34
2017-01-05T11:32:22.875Z,72.06
2017-01-05T11:33:31.840Z,71.87
2017-01-05T11:34:40.828Z,71.87
2017-01-05T11:35:49.796Z,72.25
2017-01-05T11:36:58.784Z,72.06
2017-01-05T11:38:07.757Z,72.06
2017-01-05T11:39:16.729Z,72.34
2017-01-05T11:40:25.740Z,72.34
2017-01-05T11:41:34.727Z,72.06
2017-01-05T11:42:43.702Z,72.34
2017-01-05T11:43:52.697Z,72.34
2017-01-05T11:45:01.689Z,71.96
2017-01-05T11:46:10.667Z,71.87
2017-01-05T11:47:19.653Z,72.06
2017-01-05T11:48:28.643Z,71.96
2017-01-05T11:49:37.630Z,72.25
2017-01-05T11:50:46.601Z,72.34
2017-01-05T11:51:55.581Z,72.06
2017-01-05T11:53:04.567Z,72.09
2017-01-05T11:54:13.561Z,71.96
2017-01-05T11:55:22.531Z,72.48
2017-01-05T11:56:31.501Z,72.09
2017-01-05T11:57:40.506Z,72.16
2017-01-05T11:58:49.484Z,72
2017-01-05T11:59:58.474Z,72.09
2017-01-05T12:01:07.448Z,72.77
2017-01-05T12:02:16.416Z,72.25
2017-01-05T12:03:25.391Z,72.09
2017-01-05T12:04:34.368Z,72.09
2017-01-05T12:05:43.351Z,72.06
2017-01-05T12:06:52.325Z,72.67
2017-01-05T12:08:01.300Z,71.96
2017-01-05T12:09:10.297Z,73.15
2017-01-05T12:10:19.279Z,72.58
2017-01-05T12:11:28.262Z,71.91
2017-01-05T12:12:37.239Z,72.38
2017-01-05T12:13:46.222Z,72.19
2017-01-05T12:14:55.199Z,72.09
2017-01-05T12:16:04.183Z,72.29
2017-01-05T12:17:13.162Z,72.29
2017-01-05T12:18:22.150Z,72.29
2017-01-05T12:19:31.124Z,71.91
2017-01-05T12:20:40.102Z,72.38
2017-01-05T12:21:49.083Z,72.38
2017-01-05T12:22:58.061Z,72.09
2017-01-05T12:24:07.032Z,72.38
2017-01-05T12:25:16.006Z,72
2017-01-05T12:26:24.982Z,71.81
2017-01-05T12:27:33.969Z,72.38
2017-01-05T12:28:42.958Z,72
2017-01-05T12:29:51.929Z,72.19
2017-01-05T12:31:00.897Z,72.29
2017-01-05T12:32:09.886Z,72
2017-01-05T12:33:18.862Z,72.19
2017-01-05T12:34:27.831Z,72.29
2017-01-05T12:35:36.816Z,72.09
2017-01-05T12:36:45.793Z,71.81
2017-01-05T12:37:54.753Z,71.71
2017-01-05T12:39:03.779Z,72
2017-01-05T12:40:12.769Z,72.19
2017-01-05T12:41:21.738Z,72.38
2017-01-05T12:42:30.708Z,71.91
2017-01-05T12:43:39.679Z,72.29
2017-01-05T12:44:48.661Z,71.91
2017-01-05T12:45:57.633Z,71.91
2017-01-05T12:47:06.610Z,71.91
2017-01-05T12:48:15.578Z,72.09
2017-01-05T12:49:24.556Z,72
2017-01-05T12:50:33.525Z,72.48
2017-01-05T12:51:42.496Z,72.09
2017-01-05T12:52:51.482Z,72.09
2017-01-05T12:54:00.466Z,72.86
2017-01-05T12:55:09.450Z,72.29
2017-01-05T12:56:18.421Z,72.38
2017-01-05T12:57:27.394Z,72
2017-01-05T12:58:36.365Z,72.38
2017-01-05T12:59:45.352Z,72.09
2017-01-05T13:00:54.334Z,72.09
2017-01-05T13:02:03.316Z,72.48
2017-01-05T13:03:12.296Z,71.91
2017-01-05T13:04:21.274Z,71.91
2017-01-05T13:05:30.253Z,71.91
2017-01-05T13:06:39.236Z,71.81
2017-01-05T13:07:48.224Z,71.81
2017-01-05T13:08:57.217Z,71.91
2017-01-05T13:10:06.183Z,72
2017-01-05T13:11:15.162Z,72
2017-01-05T13:12:24.140Z,71.81
2017-01-05T13:13:33.125Z,71.71
2017-01-05T13:14:42.099Z,72
2017-01-05T13:15:51.067Z,72
2017-01-05T13:17:00.039Z,71.91
2017-01-05T13:18:09.026Z,71.84
2017-01-05T13:19:17.999Z,72.09
2017-01-05T13:20:27.007Z,72
2017-01-05T13:21:35.981Z,71.84
2017-01-05T13:22:44.950Z,71.71
2017-01-05T13:23:53.926Z,71.91
2017-01-05T13:25:02.934Z,72
2017-01-05T13:26:11.909Z,72
2017-01-05T13:27:20.872Z,72
2017-01-05T13:28:29.856Z,72
2017-01-05T13:29:38.838Z,71.91
2017-01-05T13:30:47.822Z,71.91
2017-01-05T13:31:56.817Z,71.91
2017-01-05T13:33:05.788Z,72.48
2017-01-05T13:34:14.776Z,71.84
2017-01-05T13:35:23.760Z,71.75
2017-01-05T13:36:32.741Z,71.91
2017-01-05T13:37:41.708Z,71.55
2017-01-05T13:38:50.685Z,72.23
2017-01-05T13:39:59.668Z,71.61
2017-01-05T13:41:08.655Z,71.55
2017-01-05T13:42:17.645Z,71.94
2017-01-05T13:43:26.608Z,71.91
2017-01-05T13:44:35.585Z,71.65
2017-01-05T13:45:44.557Z,72.32
2017-01-05T13:46:53.542Z,71.94
2017-01-05T13:48:02.515Z,71.61
2017-01-05T13:49:11.505Z,71.94
2017-01-05T13:50:20.485Z,71.94
2017-01-05T13:51:29.472Z,72.13
2017-01-05T13:52:38.451Z,72.03
2017-01-05T13:53:47.428Z,71.84
2017-01-05T13:54:56.399Z,72.13
2017-01-05T13:56:05.391Z,71.84
2017-01-05T13:57:14.372Z,71.94
2017-01-05T13:58:23.334Z,72.03
2017-01-05T13:59:32.321Z,71.75
2017-01-05T14:00:41.308Z,71.65
2017-01-05T14:01:50.313Z,71.75
2017-01-05T14:02:59.292Z,72.19
2017-01-05T14:04:08.268Z,71.55
2017-01-05T14:05:17.237Z,71.55
2017-01-05T14:06:26.218Z,72.13
2017-01-05T14:07:35.214Z,71.94
2017-01-05T14:08:44.183Z,71.65
2017-01-05T14:09:53.173Z,71.75
2017-01-05T14:11:02.146Z,71.71
2017-01-05T14:12:11.128Z,71.65
2017-01-05T14:13:20.115Z,71.65
2017-01-05T14:14:29.092Z,71.65
2017-01-05T14:15:38.057Z,71.71
2017-01-05T14:16:47.064Z,71.75
2017-01-05T14:17:56.041Z,71.71
2017-01-05T14:19:05.016Z,71.94
2017-01-05T14:20:13.999Z,71.55
2017-01-05T14:21:22.986Z,71.75
2017-01-05T14:22:31.958Z,71.65
2017-01-05T14:23:40.935Z,71.65
2017-01-05T14:24:49.920Z,71.84
2017-01-05T14:25:58.893Z,71.65
2017-01-05T14:27:07.875Z,72.03
2017-01-05T14:28:16.848Z,72.03
2017-01-05T14:29:25.832Z,71.75
2017-01-05T14:30:34.818Z,71.94
2017-01-05T14:31:43.794Z,71.55
2017-01-05T14:32:52.770Z,71.75
2017-01-05T14:34:01.751Z,71.55
2017-01-05T14:35:10.760Z,71.94
2017-01-05T14:36:19.728Z,72.13
2017-01-05T14:37:28.711Z,71.52
2017-01-05T14:38:37.692Z,71.52
2017-01-05T14:39:46.670Z,72.09
2017-01-05T14:40:55.645Z,71.75
2017-01-05T14:42:04.621Z,71.75
2017-01-05T14:43:13.612Z,71.46
2017-01-05T14:44:22.587Z,71.75
2017-01-05T14:45:31.603Z,71.36
2017-01-05T14:46:40.588Z,71.75
2017-01-05T14:47:49.563Z,71.71
2017-01-05T14:48:58.539Z,71.55
2017-01-05T14:50:07.518Z,71.52
2017-01-05T14:51:16.496Z,71.91
2017-01-05T14:52:25.490Z,72.23
2017-01-05T14:53:34.482Z,71.84
2017-01-05T14:54:43.459Z,72
2017-01-05T14:55:52.441Z,71.91
2017-01-05T14:57:01.424Z,71.91